sensor_id;sensor_type;location;lat;lon;timestamp;temperature;humidity
48551;DHT22;34397;51.176;6.738;2022-08-01T00:00:29;20.50;65.20
48551;DHT22;34397;51.176;6.738;2022-08-01T00:03:01;20.50;65.20
48551;DHT22;34397;51.176;6.738;2022-08-01T00:05:34;20.50;64.80
48551;DHT22;34397;51.176;6.738;2022-08-01T00:08:06;20.50;65.60
48551;DHT22;34397;51.176;6.738;2022-08-01T00:10:38;20.50;64.90
48551;DHT22;34397;51.176;6.738;2022-08-01T00:13:10;20.50;64.70
48551;DHT22;34397;51.176;6.738;2022-08-01T00:15:42;20.50;64.80
48551;DHT22;34397;51.176;6.738;2022-08-01T00:18:14;20.50;64.70
48551;DHT22;34397;51.176;6.738;2022-08-01T00:20:47;20.60;64.90
48551;DHT22;34397;51.176;6.738;2022-08-01T00:23:19;20.60;64.50
48551;DHT22;34397;51.176;6.738;2022-08-01T00:25:51;20.60;64.50
48551;DHT22;34397;51.176;6.738;2022-08-01T00:28:23;20.50;64.70
48551;DHT22;34397;51.176;6.738;2022-08-01T00:30:55;20.50;65.10
48551;DHT22;34397;51.176;6.738;2022-08-01T00:33:27;20.60;64.70
48551;DHT22;34397;51.176;6.738;2022-08-01T00:36:00;20.60;64.80
48551;DHT22;34397;51.176;6.738;2022-08-01T00:38:32;20.60;64.50
48551;DHT22;34397;51.176;6.738;2022-08-01T00:41:04;20.50;64.20
48551;DHT22;34397;51.176;6.738;2022-08-01T00:43:36;20.50;64.40
48551;DHT22;34397;51.176;6.738;2022-08-01T00:46:08;20.50;64.50
48551;DHT22;34397;51.176;6.738;2022-08-01T00:48:40;20.50;65.00
48551;DHT22;34397;51.176;6.738;2022-08-01T00:51:14;20.50;64.80
48551;DHT22;34397;51.176;6.738;2022-08-01T00:53:46;20.40;64.50
48551;DHT22;34397;51.176;6.738;2022-08-01T00:56:20;20.40;64.30
48551;DHT22;34397;51.176;6.738;2022-08-01T00:58:53;20.40;64.30
48551;DHT22;34397;51.176;6.738;2022-08-01T01:01:26;20.40;64.10
48551;DHT22;34397;51.176;6.738;2022-08-01T01:03:57;20.30;64.00
48551;DHT22;34397;51.176;6.738;2022-08-01T01:06:41;20.30;64.30
48551;DHT22;34397;51.176;6.738;2022-08-01T01:09:27;20.30;64.50
48551;DHT22;34397;51.176;6.738;2022-08-01T01:12:13;20.20;64.30
48551;DHT22;34397;51.176;6.738;2022-08-01T01:14:54;20.20;64.20
48551;DHT22;34397;51.176;6.738;2022-08-01T01:17:39;20.20;64.20
48551;DHT22;34397;51.176;6.738;2022-08-01T01:20:14;20.10;64.40
48551;DHT22;34397;51.176;6.738;2022-08-01T01:22:53;20.00;64.50
48551;DHT22;34397;51.176;6.738;2022-08-01T01:25:41;20.00;64.80
48551;DHT22;34397;51.176;6.738;2022-08-01T01:28:29;19.90;64.90
48551;DHT22;34397;51.176;6.738;2022-08-01T01:31:08;19.90;64.90
48551;DHT22;34397;51.176;6.738;2022-08-01T01:33:42;19.90;65.20
48551;DHT22;34397;51.176;6.738;2022-08-01T01:36:17;19.80;65.00
48551;DHT22;34397;51.176;6.738;2022-08-01T01:38:51;19.80;65.40
48551;DHT22;34397;51.176;6.738;2022-08-01T01:41:25;19.70;65.70
48551;DHT22;34397;51.176;6.738;2022-08-01T01:44:00;19.70;65.80
48551;DHT22;34397;51.176;6.738;2022-08-01T01:46:35;19.70;65.80
48551;DHT22;34397;51.176;6.738;2022-08-01T01:49:08;19.70;65.80
48551;DHT22;34397;51.176;6.738;2022-08-01T01:51:42;19.70;65.70
48551;DHT22;34397;51.176;6.738;2022-08-01T01:54:15;19.70;65.70
48551;DHT22;34397;51.176;6.738;2022-08-01T01:56:47;19.70;65.70
48551;DHT22;34397;51.176;6.738;2022-08-01T01:59:20;19.70;65.60
48551;DHT22;34397;51.176;6.738;2022-08-01T02:01:57;19.70;65.80
48551;DHT22;34397;51.176;6.738;2022-08-01T02:04:32;19.70;65.60
48551;DHT22;34397;51.176;6.738;2022-08-01T02:07:05;19.70;65.70
48551;DHT22;34397;51.176;6.738;2022-08-01T02:09:42;19.70;65.60
48551;DHT22;34397;51.176;6.738;2022-08-01T02:12:16;19.80;65.60
48551;DHT22;34397;51.176;6.738;2022-08-01T02:14:50;19.70;65.50
48551;DHT22;34397;51.176;6.738;2022-08-01T02:17:26;19.70;65.60
48551;DHT22;34397;51.176;6.738;2022-08-01T02:19:59;19.70;65.70
48551;DHT22;34397;51.176;6.738;2022-08-01T02:22:34;19.70;65.60
48551;DHT22;34397;51.176;6.738;2022-08-01T02:25:13;19.70;65.80
48551;DHT22;34397;51.176;6.738;2022-08-01T02:27:54;19.70;65.90
48551;DHT22;34397;51.176;6.738;2022-08-01T02:30:32;19.70;65.90
48551;DHT22;34397;51.176;6.738;2022-08-01T02:33:10;19.70;66.10
48551;DHT22;34397;51.176;6.738;2022-08-01T02:35:46;19.60;65.90
48551;DHT22;34397;51.176;6.738;2022-08-01T02:38:22;19.60;65.90
48551;DHT22;34397;51.176;6.738;2022-08-01T02:40:59;19.60;65.90
48551;DHT22;34397;51.176;6.738;2022-08-01T02:43:37;19.60;65.80
48551;DHT22;34397;51.176;6.738;2022-08-01T02:46:17;19.70;65.90
48551;DHT22;34397;51.176;6.738;2022-08-01T02:48:56;19.70;65.80
48551;DHT22;34397;51.176;6.738;2022-08-01T02:51:31;19.70;65.70
48551;DHT22;34397;51.176;6.738;2022-08-01T02:54:06;19.70;65.70
48551;DHT22;34397;51.176;6.738;2022-08-01T02:56:40;19.70;65.80
48551;DHT22;34397;51.176;6.738;2022-08-01T02:59:15;19.70;65.60
48551;DHT22;34397;51.176;6.738;2022-08-01T03:01:50;19.70;65.50
48551;DHT22;34397;51.176;6.738;2022-08-01T03:04:25;19.70;65.50
48551;DHT22;34397;51.176;6.738;2022-08-01T03:06:58;19.70;65.50
48551;DHT22;34397;51.176;6.738;2022-08-01T03:09:35;19.70;65.40
48551;DHT22;34397;51.176;6.738;2022-08-01T03:12:11;19.70;65.70
48551;DHT22;34397;51.176;6.738;2022-08-01T03:14:47;19.70;65.60
48551;DHT22;34397;51.176;6.738;2022-08-01T03:17:21;19.70;65.40
48551;DHT22;34397;51.176;6.738;2022-08-01T03:19:57;19.80;65.70
48551;DHT22;34397;51.176;6.738;2022-08-01T03:22:31;19.70;65.60
48551;DHT22;34397;51.176;6.738;2022-08-01T03:25:04;19.80;65.60
48551;DHT22;34397;51.176;6.738;2022-08-01T03:27:37;19.70;65.50
48551;DHT22;34397;51.176;6.738;2022-08-01T03:30:10;19.70;65.60
48551;DHT22;34397;51.176;6.738;2022-08-01T03:32:44;19.70;65.50
48551;DHT22;34397;51.176;6.738;2022-08-01T03:35:18;19.70;65.70
48551;DHT22;34397;51.176;6.738;2022-08-01T03:37:52;19.70;65.60
48551;DHT22;34397;51.176;6.738;2022-08-01T03:40:31;19.70;65.50
48551;DHT22;34397;51.176;6.738;2022-08-01T03:43:10;19.70;65.70
48551;DHT22;34397;51.176;6.738;2022-08-01T03:45:46;19.70;65.60
48551;DHT22;34397;51.176;6.738;2022-08-01T03:48:27;19.80;66.00
48551;DHT22;34397;51.176;6.738;2022-08-01T03:51:03;19.70;66.10
48551;DHT22;34397;51.176;6.738;2022-08-01T03:53:37;19.70;65.80
48551;DHT22;34397;51.176;6.738;2022-08-01T03:56:10;19.70;65.80
48551;DHT22;34397;51.176;6.738;2022-08-01T03:58:44;19.80;65.90
48551;DHT22;34397;51.176;6.738;2022-08-01T04:01:17;19.70;65.80
48551;DHT22;34397;51.176;6.738;2022-08-01T04:03:50;19.70;65.70
48551;DHT22;34397;51.176;6.738;2022-08-01T04:06:23;19.80;65.70
48551;DHT22;34397;51.176;6.738;2022-08-01T04:08:55;19.80;65.60
48551;DHT22;34397;51.176;6.738;2022-08-01T04:11:27;19.80;65.50
48551;DHT22;34397;51.176;6.738;2022-08-01T04:13:59;19.80;65.70
48551;DHT22;34397;51.176;6.738;2022-08-01T04:16:31;19.80;65.50
48551;DHT22;34397;51.176;6.738;2022-08-01T04:19:04;19.80;65.60
48551;DHT22;34397;51.176;6.738;2022-08-01T04:21:39;19.90;65.80
48551;DHT22;34397;51.176;6.738;2022-08-01T04:24:13;19.80;65.70
48551;DHT22;34397;51.176;6.738;2022-08-01T04:26:50;19.80;65.60
48551;DHT22;34397;51.176;6.738;2022-08-01T04:29:23;19.80;65.70
48551;DHT22;34397;51.176;6.738;2022-08-01T04:31:57;19.80;66.00
48551;DHT22;34397;51.176;6.738;2022-08-01T04:34:32;19.90;66.00
48551;DHT22;34397;51.176;6.738;2022-08-01T04:37:08;19.80;66.00
48551;DHT22;34397;51.176;6.738;2022-08-01T04:39:41;19.90;65.70
48551;DHT22;34397;51.176;6.738;2022-08-01T04:42:14;19.90;65.60
48551;DHT22;34397;51.176;6.738;2022-08-01T04:44:47;19.90;65.60
48551;DHT22;34397;51.176;6.738;2022-08-01T04:47:19;19.90;65.50
48551;DHT22;34397;51.176;6.738;2022-08-01T04:49:51;19.90;65.70
48551;DHT22;34397;51.176;6.738;2022-08-01T04:52:34;19.90;65.50
48551;DHT22;34397;51.176;6.738;2022-08-01T04:55:07;19.90;65.80
48551;DHT22;34397;51.176;6.738;2022-08-01T04:57:41;19.90;65.80
48551;DHT22;34397;51.176;6.738;2022-08-01T05:00:15;19.80;66.10
48551;DHT22;34397;51.176;6.738;2022-08-01T05:02:47;19.80;65.90
48551;DHT22;34397;51.176;6.738;2022-08-01T05:05:19;19.80;66.00
48551;DHT22;34397;51.176;6.738;2022-08-01T05:07:53;19.80;66.20
48551;DHT22;34397;51.176;6.738;2022-08-01T05:10:26;19.80;66.00
48551;DHT22;34397;51.176;6.738;2022-08-01T05:12:58;19.70;65.90
48551;DHT22;34397;51.176;6.738;2022-08-01T05:15:30;19.70;65.90
48551;DHT22;34397;51.176;6.738;2022-08-01T05:18:02;19.70;66.10
48551;DHT22;34397;51.176;6.738;2022-08-01T05:20:34;19.70;66.10
48551;DHT22;34397;51.176;6.738;2022-08-01T05:23:13;19.70;66.10
48551;DHT22;34397;51.176;6.738;2022-08-01T05:25:45;19.70;66.40
48551;DHT22;34397;51.176;6.738;2022-08-01T05:28:16;19.70;66.20
48551;DHT22;34397;51.176;6.738;2022-08-01T05:31:02;19.70;66.30
48551;DHT22;34397;51.176;6.738;2022-08-01T05:33:34;19.70;66.50
48551;DHT22;34397;51.176;6.738;2022-08-01T05:36:06;19.70;66.10
48551;DHT22;34397;51.176;6.738;2022-08-01T05:38:39;19.70;66.30
48551;DHT22;34397;51.176;6.738;2022-08-01T05:41:11;19.80;66.00
48551;DHT22;34397;51.176;6.738;2022-08-01T05:43:46;19.70;65.90
48551;DHT22;34397;51.176;6.738;2022-08-01T05:46:40;19.70;67.30
48551;DHT22;34397;51.176;6.738;2022-08-01T05:49:14;19.70;66.10
48551;DHT22;34397;51.176;6.738;2022-08-01T05:51:55;19.70;66.10
48551;DHT22;34397;51.176;6.738;2022-08-01T05:54:33;19.80;66.00
48551;DHT22;34397;51.176;6.738;2022-08-01T05:57:07;19.80;65.90
48551;DHT22;34397;51.176;6.738;2022-08-01T05:59:38;19.80;65.80
48551;DHT22;34397;51.176;6.738;2022-08-01T06:02:10;19.70;66.00
48551;DHT22;34397;51.176;6.738;2022-08-01T06:04:45;19.80;66.00
48551;DHT22;34397;51.176;6.738;2022-08-01T06:07:50;19.80;66.10
48551;DHT22;34397;51.176;6.738;2022-08-01T06:10:47;19.80;65.90
48551;DHT22;34397;51.176;6.738;2022-08-01T06:13:19;19.90;66.10
48551;DHT22;34397;51.176;6.738;2022-08-01T06:15:54;19.80;66.00
48551;DHT22;34397;51.176;6.738;2022-08-01T06:18:38;19.90;66.30
48551;DHT22;34397;51.176;6.738;2022-08-01T06:21:10;19.90;66.80
48551;DHT22;34397;51.176;6.738;2022-08-01T06:23:45;20.00;66.40
48551;DHT22;34397;51.176;6.738;2022-08-01T06:26:27;20.00;65.70
48551;DHT22;34397;51.176;6.738;2022-08-01T06:28:59;20.10;65.30
48551;DHT22;34397;51.176;6.738;2022-08-01T06:31:32;20.10;65.40
48551;DHT22;34397;51.176;6.738;2022-08-01T06:34:04;20.10;65.30
48551;DHT22;34397;51.176;6.738;2022-08-01T06:36:36;20.10;64.80
48551;DHT22;34397;51.176;6.738;2022-08-01T06:39:08;20.20;64.70
48551;DHT22;34397;51.176;6.738;2022-08-01T06:41:41;20.30;65.10
48551;DHT22;34397;51.176;6.738;2022-08-01T06:44:16;20.30;64.80
48551;DHT22;34397;51.176;6.738;2022-08-01T06:46:48;20.30;64.80
48551;DHT22;34397;51.176;6.738;2022-08-01T06:49:20;20.40;65.00
48551;DHT22;34397;51.176;6.738;2022-08-01T06:51:52;20.50;64.60
48551;DHT22;34397;51.176;6.738;2022-08-01T06:54:24;20.50;64.40
48551;DHT22;34397;51.176;6.738;2022-08-01T06:56:57;20.60;64.10
48551;DHT22;34397;51.176;6.738;2022-08-01T06:59:29;20.70;64.10
48551;DHT22;34397;51.176;6.738;2022-08-01T07:02:01;20.70;63.80
48551;DHT22;34397;51.176;6.738;2022-08-01T07:04:33;20.80;64.10
48551;DHT22;34397;51.176;6.738;2022-08-01T07:07:05;20.80;64.00
48551;DHT22;34397;51.176;6.738;2022-08-01T07:09:37;20.90;63.80
48551;DHT22;34397;51.176;6.738;2022-08-01T07:12:12;21.00;64.40
48551;DHT22;34397;51.176;6.738;2022-08-01T07:14:44;21.00;64.00
48551;DHT22;34397;51.176;6.738;2022-08-01T07:17:16;21.10;63.60
48551;DHT22;34397;51.176;6.738;2022-08-01T07:19:50;21.10;63.70
48551;DHT22;34397;51.176;6.738;2022-08-01T07:22:24;21.10;62.90
48551;DHT22;34397;51.176;6.738;2022-08-01T07:24:56;21.20;62.70
48551;DHT22;34397;51.176;6.738;2022-08-01T07:27:30;21.20;62.10
48551;DHT22;34397;51.176;6.738;2022-08-01T07:30:03;21.30;61.40
48551;DHT22;34397;51.176;6.738;2022-08-01T07:32:35;21.30;61.80
48551;DHT22;34397;51.176;6.738;2022-08-01T07:35:08;21.40;61.60
48551;DHT22;34397;51.176;6.738;2022-08-01T07:37:40;21.40;60.70
48551;DHT22;34397;51.176;6.738;2022-08-01T07:40:12;21.40;59.80
48551;DHT22;34397;51.176;6.738;2022-08-01T07:42:46;21.50;58.40
48551;DHT22;34397;51.176;6.738;2022-08-01T07:45:18;21.40;59.40
48551;DHT22;34397;51.176;6.738;2022-08-01T07:47:51;21.30;59.40
48551;DHT22;34397;51.176;6.738;2022-08-01T07:50:23;21.30;59.40
48551;DHT22;34397;51.176;6.738;2022-08-01T07:52:55;21.20;60.70
48551;DHT22;34397;51.176;6.738;2022-08-01T07:55:26;21.10;59.40
48551;DHT22;34397;51.176;6.738;2022-08-01T07:58:00;21.00;59.40
48551;DHT22;34397;51.176;6.738;2022-08-01T08:00:32;21.10;60.00
48551;DHT22;34397;51.176;6.738;2022-08-01T08:03:04;21.10;59.30
48551;DHT22;34397;51.176;6.738;2022-08-01T08:05:36;21.10;59.30
48551;DHT22;34397;51.176;6.738;2022-08-01T08:08:08;21.20;59.00
48551;DHT22;34397;51.176;6.738;2022-08-01T08:10:41;21.30;59.90
48551;DHT22;34397;51.176;6.738;2022-08-01T08:13:15;21.30;59.10
48551;DHT22;34397;51.176;6.738;2022-08-01T08:15:47;21.30;58.20
48551;DHT22;34397;51.176;6.738;2022-08-01T08:18:18;21.40;58.50
48551;DHT22;34397;51.176;6.738;2022-08-01T08:20:50;21.40;58.50
48551;DHT22;34397;51.176;6.738;2022-08-01T08:23:22;21.40;57.70
48551;DHT22;34397;51.176;6.738;2022-08-01T08:26:12;21.30;58.10
48551;DHT22;34397;51.176;6.738;2022-08-01T08:28:45;21.40;58.10
48551;DHT22;34397;51.176;6.738;2022-08-01T08:31:17;21.40;57.90
48551;DHT22;34397;51.176;6.738;2022-08-01T08:33:49;21.40;58.00
48551;DHT22;34397;51.176;6.738;2022-08-01T08:36:21;21.40;58.10
48551;DHT22;34397;51.176;6.738;2022-08-01T08:38:52;21.50;58.00
48551;DHT22;34397;51.176;6.738;2022-08-01T08:41:25;21.60;58.00
48551;DHT22;34397;51.176;6.738;2022-08-01T08:44:00;21.60;56.30
48551;DHT22;34397;51.176;6.738;2022-08-01T08:46:32;21.60;57.60
48551;DHT22;34397;51.176;6.738;2022-08-01T08:49:05;21.80;57.30
48551;DHT22;34397;51.176;6.738;2022-08-01T08:51:39;22.00;56.20
48551;DHT22;34397;51.176;6.738;2022-08-01T08:54:13;22.10;55.40
48551;DHT22;34397;51.176;6.738;2022-08-01T08:56:46;22.20;55.00
48551;DHT22;34397;51.176;6.738;2022-08-01T08:59:20;22.30;54.50
48551;DHT22;34397;51.176;6.738;2022-08-01T09:01:52;22.30;53.50
48551;DHT22;34397;51.176;6.738;2022-08-01T09:04:24;22.40;54.50
48551;DHT22;34397;51.176;6.738;2022-08-01T09:06:57;22.30;54.80
48551;DHT22;34397;51.176;6.738;2022-08-01T09:09:29;22.40;54.30
48551;DHT22;34397;51.176;6.738;2022-08-01T09:12:00;22.30;53.10
48551;DHT22;34397;51.176;6.738;2022-08-01T09:14:44;22.20;53.20
48551;DHT22;34397;51.176;6.738;2022-08-01T09:17:16;22.20;53.40
48551;DHT22;34397;51.176;6.738;2022-08-01T09:19:51;22.10;53.90
48551;DHT22;34397;51.176;6.738;2022-08-01T09:22:24;22.20;54.30
48551;DHT22;34397;51.176;6.738;2022-08-01T09:24:57;22.20;53.90
48551;DHT22;34397;51.176;6.738;2022-08-01T09:27:30;22.20;53.00
48551;DHT22;34397;51.176;6.738;2022-08-01T09:30:11;22.30;53.00
48551;DHT22;34397;51.176;6.738;2022-08-01T09:32:53;22.30;51.80
48551;DHT22;34397;51.176;6.738;2022-08-01T09:35:28;22.40;52.40
48551;DHT22;34397;51.176;6.738;2022-08-01T09:38:15;22.40;52.80
48551;DHT22;34397;51.176;6.738;2022-08-01T09:40:51;22.60;55.40
48551;DHT22;34397;51.176;6.738;2022-08-01T09:43:26;22.80;53.80
48551;DHT22;34397;51.176;6.738;2022-08-01T09:46:04;23.00;53.40
48551;DHT22;34397;51.176;6.738;2022-08-01T09:48:38;23.30;53.40
48551;DHT22;34397;51.176;6.738;2022-08-01T09:51:10;23.50;51.70
48551;DHT22;34397;51.176;6.738;2022-08-01T09:53:44;23.60;51.80
48551;DHT22;34397;51.176;6.738;2022-08-01T09:56:18;23.70;50.70
48551;DHT22;34397;51.176;6.738;2022-08-01T09:58:52;23.70;50.60
48551;DHT22;34397;51.176;6.738;2022-08-01T10:01:27;23.80;51.90
48551;DHT22;34397;51.176;6.738;2022-08-01T10:04:08;24.00;51.10
48551;DHT22;34397;51.176;6.738;2022-08-01T10:06:43;24.10;47.90
48551;DHT22;34397;51.176;6.738;2022-08-01T10:09:27;24.20;47.70
48551;DHT22;34397;51.176;6.738;2022-08-01T10:12:01;24.30;47.20
48551;DHT22;34397;51.176;6.738;2022-08-01T10:14:37;24.50;50.30
48551;DHT22;34397;51.176;6.738;2022-08-01T10:17:12;24.80;46.50
48551;DHT22;34397;51.176;6.738;2022-08-01T10:19:47;25.00;45.90
48551;DHT22;34397;51.176;6.738;2022-08-01T10:22:23;25.30;47.00
48551;DHT22;34397;51.176;6.738;2022-08-01T10:25:02;25.80;47.50
48551;DHT22;34397;51.176;6.738;2022-08-01T10:27:36;26.10;47.30
48551;DHT22;34397;51.176;6.738;2022-08-01T10:30:10;26.40;46.00
48551;DHT22;34397;51.176;6.738;2022-08-01T10:32:45;26.50;45.70
48551;DHT22;34397;51.176;6.738;2022-08-01T10:35:18;26.50;45.80
48551;DHT22;34397;51.176;6.738;2022-08-01T10:37:50;26.60;44.70
48551;DHT22;34397;51.176;6.738;2022-08-01T10:40:28;26.60;44.80
48551;DHT22;34397;51.176;6.738;2022-08-01T10:43:01;26.60;43.60
48551;DHT22;34397;51.176;6.738;2022-08-01T10:45:34;26.50;43.90
48551;DHT22;34397;51.176;6.738;2022-08-01T10:48:14;26.40;44.30
48551;DHT22;34397;51.176;6.738;2022-08-01T10:50:52;26.30;43.90
48551;DHT22;34397;51.176;6.738;2022-08-01T10:53:25;26.20;43.90
48551;DHT22;34397;51.176;6.738;2022-08-01T10:55:59;26.10;43.70
48551;DHT22;34397;51.176;6.738;2022-08-01T10:58:34;26.00;43.90
48551;DHT22;34397;51.176;6.738;2022-08-01T11:01:19;25.90;44.60
48551;DHT22;34397;51.176;6.738;2022-08-01T11:04:03;25.90;44.00
48551;DHT22;34397;51.176;6.738;2022-08-01T11:06:41;25.80;43.70
48551;DHT22;34397;51.176;6.738;2022-08-01T11:09:27;25.60;43.90
48551;DHT22;34397;51.176;6.738;2022-08-01T11:12:07;25.60;44.70
48551;DHT22;34397;51.176;6.738;2022-08-01T11:15:23;25.70;46.00
48551;DHT22;34397;51.176;6.738;2022-08-01T11:18:03;26.00;45.20
48551;DHT22;34397;51.176;6.738;2022-08-01T11:21:02;26.40;45.40
48551;DHT22;34397;51.176;6.738;2022-08-01T11:23:47;26.60;45.00
48551;DHT22;34397;51.176;6.738;2022-08-01T11:26:23;26.70;42.80
48551;DHT22;34397;51.176;6.738;2022-08-01T11:29:13;26.80;42.40
48551;DHT22;34397;51.176;6.738;2022-08-01T11:31:47;26.90;41.70
48551;DHT22;34397;51.176;6.738;2022-08-01T11:34:19;26.90;42.90
48551;DHT22;34397;51.176;6.738;2022-08-01T11:37:22;26.90;43.20
48551;DHT22;34397;51.176;6.738;2022-08-01T11:40:16;26.80;42.80
48551;DHT22;34397;51.176;6.738;2022-08-01T11:42:50;26.80;42.90
48551;DHT22;34397;51.176;6.738;2022-08-01T11:45:49;26.80;42.90
48551;DHT22;34397;51.176;6.738;2022-08-01T11:48:22;26.80;43.10
48551;DHT22;34397;51.176;6.738;2022-08-01T11:50:55;26.90;43.00
48551;DHT22;34397;51.176;6.738;2022-08-01T11:53:45;27.00;40.60
48551;DHT22;34397;51.176;6.738;2022-08-01T11:56:17;27.20;40.80
48551;DHT22;34397;51.176;6.738;2022-08-01T11:58:58;27.50;41.30
48551;DHT22;34397;51.176;6.738;2022-08-01T12:01:31;27.80;39.50
48551;DHT22;34397;51.176;6.738;2022-08-01T12:04:03;28.20;38.00
48551;DHT22;34397;51.176;6.738;2022-08-01T12:06:35;28.50;37.50
48551;DHT22;34397;51.176;6.738;2022-08-01T12:09:19;28.70;35.90
48551;DHT22;34397;51.176;6.738;2022-08-01T12:11:52;29.00;36.40
48551;DHT22;34397;51.176;6.738;2022-08-01T12:14:24;29.10;35.80
48551;DHT22;34397;51.176;6.738;2022-08-01T12:16:56;29.30;36.90
48551;DHT22;34397;51.176;6.738;2022-08-01T12:19:29;29.40;36.90
48551;DHT22;34397;51.176;6.738;2022-08-01T12:22:05;29.60;37.60
48551;DHT22;34397;51.176;6.738;2022-08-01T12:24:42;29.90;35.90
48551;DHT22;34397;51.176;6.738;2022-08-01T12:27:24;30.10;35.70
48551;DHT22;34397;51.176;6.738;2022-08-01T12:29:57;30.30;35.80
48551;DHT22;34397;51.176;6.738;2022-08-01T12:32:31;30.40;36.00
48551;DHT22;34397;51.176;6.738;2022-08-01T12:35:09;30.60;36.20
48551;DHT22;34397;51.176;6.738;2022-08-01T12:37:45;30.70;35.70
48551;DHT22;34397;51.176;6.738;2022-08-01T12:40:21;30.90;35.50
48551;DHT22;34397;51.176;6.738;2022-08-01T12:42:56;31.20;35.60
48551;DHT22;34397;51.176;6.738;2022-08-01T12:45:31;31.40;34.80
48551;DHT22;34397;51.176;6.738;2022-08-01T12:48:08;31.60;33.90
48551;DHT22;34397;51.176;6.738;2022-08-01T12:50:46;31.70;33.50
48551;DHT22;34397;51.176;6.738;2022-08-01T12:53:19;31.90;33.90
48551;DHT22;34397;51.176;6.738;2022-08-01T12:55:53;32.10;32.60
48551;DHT22;34397;51.176;6.738;2022-08-01T12:58:31;31.90;33.40
48551;DHT22;34397;51.176;6.738;2022-08-01T13:01:05;31.70;31.70
48551;DHT22;34397;51.176;6.738;2022-08-01T13:03:38;31.50;34.20
48551;DHT22;34397;51.176;6.738;2022-08-01T13:06:11;31.40;34.70
48551;DHT22;34397;51.176;6.738;2022-08-01T13:08:45;31.50;33.60
48551;DHT22;34397;51.176;6.738;2022-08-01T13:11:18;31.50;33.50
48551;DHT22;34397;51.176;6.738;2022-08-01T13:13:51;31.50;33.90
48551;DHT22;34397;51.176;6.738;2022-08-01T13:16:24;31.40;34.80
48551;DHT22;34397;51.176;6.738;2022-08-01T13:18:57;31.30;34.70
48551;DHT22;34397;51.176;6.738;2022-08-01T13:21:30;31.20;34.80
48551;DHT22;34397;51.176;6.738;2022-08-01T13:24:04;31.10;34.50
48551;DHT22;34397;51.176;6.738;2022-08-01T13:26:44;31.00;34.80
48551;DHT22;34397;51.176;6.738;2022-08-01T13:29:20;30.90;35.70
48551;DHT22;34397;51.176;6.738;2022-08-01T13:31:53;30.80;35.90
48551;DHT22;34397;51.176;6.738;2022-08-01T13:34:31;30.70;34.90
48551;DHT22;34397;51.176;6.738;2022-08-01T13:37:04;30.70;35.30
48551;DHT22;34397;51.176;6.738;2022-08-01T13:39:36;30.70;36.10
48551;DHT22;34397;51.176;6.738;2022-08-01T13:42:15;30.60;35.50
48551;DHT22;34397;51.176;6.738;2022-08-01T13:44:47;30.50;34.20
48551;DHT22;34397;51.176;6.738;2022-08-01T13:47:19;30.40;34.60
48551;DHT22;34397;51.176;6.738;2022-08-01T13:49:52;30.20;34.60
48551;DHT22;34397;51.176;6.738;2022-08-01T13:52:24;30.20;35.40
48551;DHT22;34397;51.176;6.738;2022-08-01T13:54:56;30.00;36.10
48551;DHT22;34397;51.176;6.738;2022-08-01T13:57:29;30.00;35.30
48551;DHT22;34397;51.176;6.738;2022-08-01T14:00:02;29.90;35.40
48551;DHT22;34397;51.176;6.738;2022-08-01T14:02:36;29.80;36.50
48551;DHT22;34397;51.176;6.738;2022-08-01T14:05:08;29.70;36.90
48551;DHT22;34397;51.176;6.738;2022-08-01T14:07:40;29.60;37.00
48551;DHT22;34397;51.176;6.738;2022-08-01T14:10:12;29.50;37.30
48551;DHT22;34397;51.176;6.738;2022-08-01T14:12:46;29.40;37.70
48551;DHT22;34397;51.176;6.738;2022-08-01T14:15:18;29.30;37.20
48551;DHT22;34397;51.176;6.738;2022-08-01T14:17:50;29.10;37.80
48551;DHT22;34397;51.176;6.738;2022-08-01T14:20:23;29.00;37.90
48551;DHT22;34397;51.176;6.738;2022-08-01T14:22:55;28.90;38.20
48551;DHT22;34397;51.176;6.738;2022-08-01T14:25:27;28.80;38.70
48551;DHT22;34397;51.176;6.738;2022-08-01T14:28:00;28.70;38.90
48551;DHT22;34397;51.176;6.738;2022-08-01T14:30:32;28.60;39.00
48551;DHT22;34397;51.176;6.738;2022-08-01T14:33:04;28.50;38.70
48551;DHT22;34397;51.176;6.738;2022-08-01T14:35:37;28.50;39.10
48551;DHT22;34397;51.176;6.738;2022-08-01T14:38:09;28.50;39.40
48551;DHT22;34397;51.176;6.738;2022-08-01T14:40:40;28.50;39.10
48551;DHT22;34397;51.176;6.738;2022-08-01T14:43:14;28.40;39.60
48551;DHT22;34397;51.176;6.738;2022-08-01T14:45:46;28.30;39.70
48551;DHT22;34397;51.176;6.738;2022-08-01T14:48:19;28.20;40.30
48551;DHT22;34397;51.176;6.738;2022-08-01T14:50:52;28.20;40.20
48551;DHT22;34397;51.176;6.738;2022-08-01T14:53:24;28.30;39.60
48551;DHT22;34397;51.176;6.738;2022-08-01T14:55:56;28.10;39.60
48551;DHT22;34397;51.176;6.738;2022-08-01T14:58:29;28.10;39.60
48551;DHT22;34397;51.176;6.738;2022-08-01T15:01:01;28.00;40.20
48551;DHT22;34397;51.176;6.738;2022-08-01T15:03:35;28.00;40.70
48551;DHT22;34397;51.176;6.738;2022-08-01T15:06:07;28.00;41.50
48551;DHT22;34397;51.176;6.738;2022-08-01T15:08:44;28.00;41.50
48551;DHT22;34397;51.176;6.738;2022-08-01T15:11:16;28.10;41.50
48551;DHT22;34397;51.176;6.738;2022-08-01T15:13:49;28.20;40.50
48551;DHT22;34397;51.176;6.738;2022-08-01T15:16:41;28.30;40.60
48551;DHT22;34397;51.176;6.738;2022-08-01T15:19:13;28.40;40.40
48551;DHT22;34397;51.176;6.738;2022-08-01T15:21:45;28.50;40.80
48551;DHT22;34397;51.176;6.738;2022-08-01T15:24:18;28.50;39.60
48551;DHT22;34397;51.176;6.738;2022-08-01T15:26:50;28.50;39.60
48551;DHT22;34397;51.176;6.738;2022-08-01T15:29:25;28.50;39.50
48551;DHT22;34397;51.176;6.738;2022-08-01T15:31:57;28.60;39.30
48551;DHT22;34397;51.176;6.738;2022-08-01T15:34:29;28.60;39.50
48551;DHT22;34397;51.176;6.738;2022-08-01T15:37:04;28.50;39.80
48551;DHT22;34397;51.176;6.738;2022-08-01T15:39:37;28.50;39.50
48551;DHT22;34397;51.176;6.738;2022-08-01T15:42:11;28.40;39.30
48551;DHT22;34397;51.176;6.738;2022-08-01T15:44:44;28.30;39.60
48551;DHT22;34397;51.176;6.738;2022-08-01T15:47:17;28.20;39.70
48551;DHT22;34397;51.176;6.738;2022-08-01T15:49:48;28.10;39.50
48551;DHT22;34397;51.176;6.738;2022-08-01T15:52:20;28.00;39.90
48551;DHT22;34397;51.176;6.738;2022-08-01T15:54:52;27.90;39.80
48551;DHT22;34397;51.176;6.738;2022-08-01T15:57:24;27.90;40.10
48551;DHT22;34397;51.176;6.738;2022-08-01T15:59:58;27.80;40.10
48551;DHT22;34397;51.176;6.738;2022-08-01T16:02:29;27.70;40.20
48551;DHT22;34397;51.176;6.738;2022-08-01T16:05:01;27.70;40.40
48551;DHT22;34397;51.176;6.738;2022-08-01T16:07:33;27.60;40.20
48551;DHT22;34397;51.176;6.738;2022-08-01T16:10:06;27.50;40.40
48551;DHT22;34397;51.176;6.738;2022-08-01T16:12:38;27.50;40.60
48551;DHT22;34397;51.176;6.738;2022-08-01T16:15:11;27.40;40.50
48551;DHT22;34397;51.176;6.738;2022-08-01T16:17:43;27.30;40.80